Time;durP1;ratioP1;P1;durP2;ratioP2;P2;SDS_P1;SDS_P2;PMS_P1;PMS_P2;Temp;Humidity;BMP_temperature;BMP_pressure;BME280_temperature;BME280_humidity;BME280_pressure;Samples;Min_cycle;Max_cycle;Signal;HPM_P1;HPM_P2
2022/11/27 00:02:22;;;;;;;74.13;29.60;;;;;;;4.04;100.00;100623.41;8421657;28;20048;-74
2022/11/27 00:06:24;;;;;;;71.13;27.17;;;;;;;3.97;100.00;100621.88;8424902;28;20105;-75
2022/11/27 00:10:25;;;;;;;80.68;28.52;;;;;;;3.96;100.00;100614.91;8420644;28;20045;-76
2022/11/27 00:14:26;;;;;;;76.45;31.10;;;;;;;3.95;100.00;100634.66;8367938;28;20138;-76
2022/11/27 00:18:27;;;;;;;85.72;31.80;;;;;;;3.90;100.00;100631.88;8422997;28;20044;-75
2022/11/27 00:22:28;;;;;;;103.70;35.38;;;;;;;3.96;100.00;100628.28;8429192;28;20059;-76
2022/11/27 00:26:31;;;;;;;93.43;32.28;;;;;;;3.93;100.00;100628.72;8422727;28;20058;-75
2022/11/27 00:30:32;;;;;;;112.53;36.05;;;;;;;3.95;100.00;100640.03;8428144;28;20111;-75
2022/11/27 00:34:33;;;;;;;112.28;34.65;;;;;;;3.93;100.00;100642.09;8409804;28;20051;-75
2022/11/27 00:38:35;;;;;;;120.65;37.70;;;;;;;3.90;100.00;100631.88;8373196;28;20048;-74
2022/11/27 00:42:36;;;;;;;124.43;38.47;;;;;;;3.97;100.00;100632.56;8419092;28;20056;-74
2022/11/27 00:46:37;;;;;;;113.80;37.85;;;;;;;3.95;100.00;100640.03;8427354;28;20525;-75
2022/11/27 00:50:38;;;;;;;123.60;37.45;;;;;;;3.98;100.00;100623.50;8428593;28;20093;-75
2022/11/27 00:54:39;;;;;;;129.68;41.95;;;;;;;3.98;100.00;100634.19;8409370;28;20052;-75
2022/11/27 00:58:40;;;;;;;143.10;40.92;;;;;;;3.98;100.00;100639.53;8377359;28;20138;-74
2022/11/27 01:02:41;;;;;;;137.65;41.63;;;;;;;3.96;100.00;100641.66;8420747;28;20052;-76
2022/11/27 01:06:43;;;;;;;136.80;39.88;;;;;;;4.02;100.00;100640.75;8422018;28;20036;-75
2022/11/27 01:10:48;;;;;;;133.27;38.78;;;;;;;4.02;100.00;100624.72;8426666;28;20040;-75
2022/11/27 01:14:49;;;;;;;158.05;40.42;;;;;;;3.93;100.00;100620.72;8425474;28;20047;-75
2022/11/27 01:18:52;;;;;;;154.02;41.17;;;;;;;3.72;100.00;100625.53;8425082;28;20063;-75
2022/11/27 01:22:53;;;;;;;152.30;40.45;;;;;;;3.64;100.00;100612.50;8417356;28;20048;-75
2022/11/27 01:26:54;;;;;;;144.27;37.72;;;;;;;3.66;100.00;100615.75;8427494;28;20044;-74
2022/11/27 01:30:55;;;;;;;131.45;36.33;;;;;;;3.65;100.00;100635.47;8426796;28;20055;-75
2022/11/27 01:34:56;;;;;;;143.82;39.92;;;;;;;3.67;100.00;100633.41;8419351;28;20155;-75
2022/11/27 01:38:58;;;;;;;139.73;35.88;;;;;;;3.78;100.00;100635.31;8426240;28;20152;-75
2022/11/27 01:42:59;;;;;;;149.50;36.47;;;;;;;3.81;100.00;100639.38;8422541;28;20051;-75
2022/11/27 01:47:06;;;;;;;134.57;36.35;;;;;;;3.81;100.00;100629.50;8412242;28;20055;-75
2022/11/27 01:51:07;;;;;;;151.85;35.30;;;;;;;3.90;100.00;100637.22;8421819;28;20127;-75
2022/11/27 01:55:20;;;;;;;149.50;38.05;;;;;;;3.93;100.00;100626.06;8421242;28;20040;-75
2022/11/27 01:59:22;;;;;;;145.38;38.75;;;;;;;3.83;100.00;100622.09;8423280;28;20040;-75
2022/11/27 02:03:23;;;;;;;132.00;37.85;;;;;;;3.85;100.00;100618.38;8419949;28;20048;-76
2022/11/27 02:07:24;;;;;;;144.43;39.58;;;;;;;3.85;100.00;100624.53;8422551;28;20048;-75
2022/11/27 02:11:57;;;;;;;147.75;38.80;;;;;;;3.83;100.00;100627.44;8400001;28;20040;-75
2022/11/27 02:16:14;;;;;;;125.45;35.35;;;;;;;3.83;100.00;100627.44;8419119;28;20040;-75
2022/11/27 02:20:22;;;;;;;122.53;36.70;;;;;;;3.86;100.00;100630.69;8424680;28;20079;-74
2022/11/27 02:24:49;;;;;;;136.50;36.17;;;;;;;3.64;100.00;100620.50;8405059;28;20449;-77
2022/11/27 02:29:04;;;;;;;136.15;35.78;;;;;;;3.65;100.00;100630.13;8400281;28;20068;-75
2022/11/27 02:33:08;;;;;;;134.02;37.72;;;;;;;3.66;100.00;100631.78;8401061;28;20044;-75
2022/11/27 02:37:12;;;;;;;154.05;36.95;;;;;;;3.58;100.00;100624.09;8421501;28;20052;-75
2022/11/27 02:41:18;;;;;;;137.15;39.35;;;;;;;3.56;100.00;100620.81;8426648;28;20052;-75
2022/11/27 02:45:26;;;;;;;131.80;36.97;;;;;;;3.67;100.00;100627.25;8402565;28;20503;-75
2022/11/27 02:49:27;;;;;;;134.83;38.60;;;;;;;3.72;100.00;100630.88;8419106;28;20052;-75
2022/11/27 02:53:37;;;;;;;150.45;39.75;;;;;;;3.73;100.00;100627.16;8350910;28;20161;-76
2022/11/27 02:57:38;;;;;;;135.45;38.88;;;;;;;3.80;100.00;100619.88;8346817;28;20049;-76
2022/11/27 03:01:44;;;;;;;153.23;40.55;;;;;;;3.78;100.00;100624.63;8370227;28;20095;-75
2022/11/27 03:05:46;;;;;;;141.38;38.90;;;;;;;3.81;100.00;100626.81;8338961;28;20503;-75
2022/11/27 03:09:49;;;;;;;157.70;39.60;;;;;;;3.87;100.00;100632.31;8352478;28;20056;-75
2022/11/27 03:13:54;;;;;;;151.27;38.78;;;;;;;3.87;100.00;100626.97;8350290;28;20041;-75
2022/11/27 03:18:05;;;;;;;174.50;39.75;;;;;;;3.92;100.00;100613.72;8357275;28;20048;-75
2022/11/27 03:22:06;;;;;;;167.75;38.65;;;;;;;3.96;100.00;100614.91;8356564;28;20044;-75
2022/11/27 03:26:07;;;;;;;151.82;38.95;;;;;;;4.01;100.00;100617.72;8384082;28;20067;-75
2022/11/27 03:30:09;;;;;;;156.35;38.45;;;;;;;3.98;100.00;100623.50;8407811;28;20048;-75
2022/11/27 03:34:10;;;;;;;161.38;35.65;;;;;;;3.92;100.00;100619.06;8416079;28;20048;-75
2022/11/27 03:38:11;;;;;;;138.23;36.92;;;;;;;3.90;100.00;100616.66;8400077;28;20448;-75
2022/11/27 03:42:21;;;;;;;173.57;37.95;;;;;;;3.91;100.00;100612.13;8419566;28;20144;-75
2022/11/27 03:46:52;;;;;;;150.95;37.78;;;;;;;3.96;100.00;100614.91;8425460;28;20089;-75
2022/11/27 03:51:14;;;;;;;172.27;37.38;;;;;;;3.95;100.00;100613.28;8321661;28;20529;-75
2022/11/27 03:55:27;;;;;;;170.55;38.67;;;;;;;4.01;100.00;100612.38;8328002;28;20045;-75
2022/11/27 03:59:31;;;;;;;202.50;40.00;;;;;;;4.02;100.00;100608.66;8328834;28;20079;-75
2022/11/27 04:03:32;;;;;;;230.45;57.78;;;;;;;4.04;100.00;100606.56;8332420;28;20049;-75
2022/11/27 04:07:33;;;;;;;279.08;53.83;;;;;;;4.01;100.00;100602.50;8328378;28;20041;-75
2022/11/27 04:11:35;;;;;;;227.73;38.33;;;;;;;3.89;100.00;100587.47;8329899;28;20045;-75
2022/11/27 04:15:36;;;;;;;161.10;37.88;;;;;;;3.92;100.00;100581.66;8292639;28;20049;-75
2022/11/27 04:19:37;;;;;;;140.30;37.40;;;;;;;3.96;100.00;100593.53;8327083;28;20169;-75
2022/11/27 04:23:39;;;;;;;159.80;37.13;;;;;;;3.97;100.00;100589.78;8328154;28;20060;-75
2022/11/27 04:27:40;;;;;;;165.57;39.35;;;;;;;3.99;100.00;100588.53;8391400;28;20048;-75
2022/11/27 04:31:41;;;;;;;276.67;93.03;;;;;;;4.02;100.00;100587.28;8427949;28;20051;-75
2022/11/27 04:35:42;;;;;;;405.45;95.47;;;;;;;4.03;100.00;100578.19;8425580;28;20037;-75
2022/11/27 04:39:43;;;;;;;368.05;78.53;;;;;;;4.02;100.00;100581.94;8420581;28;20215;-75
2022/11/27 04:43:44;;;;;;;186.55;46.95;;;;;;;3.98;100.00;100570.06;8420265;28;20494;-76
2022/11/27 04:47:45;;;;;;;145.85;36.13;;;;;;;3.96;100.00;100566.81;8423436;28;20079;-75
2022/11/27 04:51:46;;;;;;;153.73;41.53;;;;;;;3.95;100.00;100559.84;8401004;28;20044;-75
2022/11/27 04:55:47;;;;;;;149.05;36.08;;;;;;;3.94;100.00;100566.22;8375358;28;20064;-75
2022/11/27 04:59:48;;;;;;;150.90;36.08;;;;;;;3.94;100.00;100552.84;8426986;28;20055;-76
2022/11/27 05:03:49;;;;;;;188.43;35.38;;;;;;;3.92;100.00;100558.41;8422276;28;20036;-75
2022/11/27 05:07:50;;;;;;;124.47;33.05;;;;;;;3.92;100.00;100547.72;8424213;28;20043;-76
2022/11/27 05:11:51;;;;;;;158.93;29.30;;;;;;;3.88;100.00;100553.75;8419190;28;20105;-75
2022/11/27 05:15:52;;;;;;;127.47;28.77;;;;;;;3.90;100.00;100565.06;8422612;28;20126;-75
2022/11/27 05:19:53;;;;;;;213.05;29.73;;;;;;;3.88;100.00;100575.16;8423878;28;20508;-75
2022/11/27 05:23:54;;;;;;;156.38;29.38;;;;;;;3.81;100.00;100570.72;8422451;28;20398;-75
2022/11/27 05:27:55;;;;;;;185.00;30.92;;;;;;;3.82;100.00;100564.34;8416209;28;20128;-75
2022/11/27 05:31:57;;;;;;;205.77;31.00;;;;;;;3.86;100.00;100578.03;8425395;28;20122;-75
2022/11/27 05:35:57;;;;;;;195.52;29.88;;;;;;;3.80;100.00;100589.66;8426401;28;20044;-74
2022/11/27 05:39:58;;;;;;;208.05;31.17;;;;;;;3.83;100.00;100603.38;8425812;28;20490;-74
2022/11/27 05:43:59;;;;;;;358.80;34.15;;;;;;;3.85;100.00;100591.66;8416513;28;20105;-75
2022/11/27 05:48:00;;;;;;;360.35;33.03;;;;;;;3.85;100.00;100591.66;8421887;28;20070;-75
2022/11/27 05:52:01;;;;;;;316.23;33.90;;;;;;;3.87;100.00;100605.59;8375648;28;20096;-75
2022/11/27 05:56:06;;;;;;;300.17;33.58;;;;;;;3.87;100.00;100605.59;8426051;28;20578;-75
2022/11/27 06:00:08;;;;;;;311.02;34.15;;;;;;;3.86;100.00;100604.75;8388538;28;20044;-75
2022/11/27 06:04:09;;;;;;;258.98;31.52;;;;;;;3.85;100.00;100607.69;8427852;28;20047;-75
2022/11/27 06:08:09;;;;;;;309.20;35.55;;;;;;;3.79;100.00;100596.03;8426298;28;20440;-75
2022/11/27 06:12:11;;;;;;;232.30;41.72;;;;;;;3.81;100.00;100609.97;8367833;28;20055;-75
2022/11/27 06:16:14;;;;;;;243.38;38.15;;;;;;;3.86;100.00;100603.97;8424841;28;20080;-75
2022/11/27 06:20:16;;;;;;;182.40;36.60;;;;;;;3.89;100.00;100608.84;8426895;28;20028;-75
2022/11/27 06:24:16;;;;;;;231.30;36.78;;;;;;;3.89;100.00;100615.00;8424503;28;20052;-74
2022/11/27 06:28:17;;;;;;;186.40;33.50;;;;;;;3.90;100.00;100613.16;8420630;28;20051;-75
2022/11/27 06:32:18;;;;;;;202.07;30.60;;;;;;;3.89;100.00;100619.53;8367502;28;20036;-76
2022/11/27 06:36:21;;;;;;;155.82;27.80;;;;;;;3.89;100.00;100619.53;8421750;28;20478;-76
2022/11/27 06:40:22;;;;;;;128.98;28.02;;;;;;;3.92;100.00;100627.91;8421133;28;20052;-75
2022/11/27 06:44:23;;;;;;;115.07;26.45;;;;;;;3.86;100.00;100625.34;8422651;28;20056;-75
2022/11/27 06:48:24;;;;;;;141.90;26.95;;;;;;;3.90;100.00;100623.84;8426046;28;20048;-75
2022/11/27 06:52:25;;;;;;;85.38;26.30;;;;;;;3.91;100.00;100622.81;8427014;28;20051;-74
2022/11/27 06:56:27;;;;;;;66.93;23.17;;;;;;;3.87;100.00;100617.09;8426960;28;20127;-74
2022/11/27 07:00:29;;;;;;;57.92;21.20;;;;;;;3.88;100.00;100617.91;8426322;28;20054;-75
2022/11/27 07:04:29;;;;;;;62.95;23.38;;;;;;;3.89;100.00;100614.19;8406612;28;20127;-75
2022/11/27 07:08:32;;;;;;;62.97;22.92;;;;;;;3.87;100.00;100616.28;8406960;28;20052;-74
2022/11/27 07:12:33;;;;;;;54.25;20.67;;;;;;;3.89;100.00;100619.53;8397190;28;20075;-75
2022/11/27 07:16:35;;;;;;;56.00;20.65;;;;;;;3.92;100.00;100608.38;8400775;28;20146;-75
2022/11/27 07:20:36;;;;;;;50.05;19.48;;;;;;;3.99;100.00;100609.09;8359174;28;20044;-76
2022/11/27 07:24:37;;;;;;;43.42;18.83;;;;;;;4.05;100.00;100613.53;8417933;28;20044;-75
2022/11/27 07:28:38;;;;;;;44.05;19.58;;;;;;;4.11;100.00;100599.25;8388163;28;20110;-75
2022/11/27 07:32:39;;;;;;;36.45;17.13;;;;;;;4.15;100.00;100603.09;8425319;28;20433;-75
2022/11/27 07:36:40;;;;;;;37.20;16.80;;;;;;;4.18;100.00;100591.94;8386330;28;20044;-75
2022/11/27 07:40:41;;;;;;;38.58;16.67;;;;;;;4.27;100.00;100601.25;8426144;28;20427;-75
2022/11/27 07:44:42;;;;;;;44.35;20.33;;;;;;;4.33;100.00;100608.38;8425455;28;20056;-75
2022/11/27 07:48:44;;;;;;;47.72;21.80;;;;;;;4.40;100.00;100608.22;8426451;28;20418;-75
2022/11/27 07:52:45;;;;;;;41.78;20.92;;;;;;;4.45;100.00;100592.31;8390610;28;20457;-75
2022/11/27 07:56:46;;;;;;;37.08;17.90;;;;;;;4.50;100.00;100595.91;8426740;28;20077;-74
2022/11/27 08:00:47;;;;;;;46.72;20.42;;;;;;;4.53;100.00;100595.47;8425869;28;20051;-75
2022/11/27 08:04:48;;;;;;;63.38;24.98;;;;;;;4.49;100.00;100599.66;8425903;28;20055;-75
2022/11/27 08:08:49;;;;;;;91.70;31.25;;;;;;;4.57;100.00;100601.97;8426304;28;20048;-77
2022/11/27 08:12:51;;;;;;;85.38;30.35;;;;;;;4.49;100.00;100594.31;8425931;28;20479;-75
2022/11/27 08:16:52;;;;;;;88.28;31.52;;;;;;;4.44;100.00;100596.84;8426279;28;20103;-75
2022/11/27 08:20:53;;;;;;;136.85;40.40;;;;;;;4.43;100.00;100600.59;8413630;28;20075;-75
2022/11/27 08:24:54;;;;;;;223.93;37.17;;;;;;;4.38;100.00;100597.78;8425701;28;20059;-76
2022/11/27 08:28:56;;;;;;;199.77;41.33;;;;;;;4.31;100.00;100594.41;8389944;28;20494;-74
2022/11/27 08:32:57;;;;;;;192.05;37.75;;;;;;;4.22;100.00;100598.47;8408340;28;20051;-75
2022/11/27 08:36:58;;;;;;;252.85;41.78;;;;;;;4.17;100.00;100606.38;8424576;28;20051;-75
2022/11/27 08:41:01;;;;;;;262.30;43.03;;;;;;;4.15;100.00;100597.75;8418350;28;20094;-76
2022/11/27 08:45:02;;;;;;;292.13;38.25;;;;;;;4.21;100.00;100596.84;8431857;28;20056;-75
2022/11/27 08:49:03;;;;;;;321.73;45.47;;;;;;;4.20;100.00;100595.19;8412183;28;20109;-76
2022/11/27 08:53:05;;;;;;;161.23;34.13;;;;;;;4.32;100.00;100604.06;8431202;28;20048;-76
2022/11/27 08:57:05;;;;;;;212.70;45.28;;;;;;;4.39;100.00;100604.75;8395675;28;20044;-76
2022/11/27 09:01:13;;;;;;;124.53;32.35;;;;;;;4.48;100.00;100598.03;8430936;28;20047;-75
2022/11/27 09:05:14;;;;;;;180.75;42.10;;;;;;;4.44;100.00;100607.53;8419520;28;20055;-75
2022/11/27 09:09:15;;;;;;;162.38;40.22;;;;;;;4.40;100.00;100616.25;8425139;28;20064;-76
2022/11/27 09:13:16;;;;;;;135.13;34.03;;;;;;;4.44;100.00;100612.88;8430570;28;20425;-75
2022/11/27 09:17:19;;;;;;;149.77;38.30;;;;;;;4.48;100.00;100619.44;8430815;28;20424;-76
2022/11/27 09:21:21;;;;;;;251.00;52.65;;;;;;;4.51;100.00;100602.06;8430252;28;20044;-75
2022/11/27 09:25:23;;;;;;;134.77;41.38;;;;;;;4.46;100.00;100610.00;8430272;28;20456;-75
2022/11/27 09:29:24;;;;;;;186.13;46.20;;;;;;;4.35;100.00;100603.59;8388844;28;20509;-75
2022/11/27 09:33:26;;;;;;;115.25;33.63;;;;;;;4.38;100.00;100597.78;8429004;28;20048;-75
2022/11/27 09:37:27;;;;;;;90.90;28.20;;;;;;;4.49;100.00;100588.97;8429163;28;20060;-75
2022/11/27 09:41:38;;;;;;;114.13;35.63;;;;;;;4.65;100.00;100582.88;8419186;28;20425;-75
2022/11/27 09:45:45;;;;;;;102.35;33.58;;;;;;;4.56;100.00;100568.22;8429368;28;20134;-75
2022/11/27 09:49:46;;;;;;;85.20;32.28;;;;;;;4.71;100.00;100570.41;8410849;28;20089;-75
2022/11/27 09:53:51;;;;;;;71.93;27.20;;;;;;;4.90;100.00;100573.78;8419059;28;20044;-75
2022/11/27 09:58:05;;;;;;;73.50;28.98;;;;;;;5.23;100.00;100568.59;8428989;28;20052;-74
2022/11/27 10:02:31;;;;;;;69.10;26.45;;;;;;;5.51;100.00;100570.44;8417148;28;20051;-75
2022/11/27 10:06:35;;;;;;;59.10;23.85;;;;;;;5.53;100.00;100563.81;8260439;28;20133;-76
2022/11/27 10:11:20;;;;;;;58.05;26.05;;;;;;;5.56;100.00;100559.00;8238394;28;20504;-75
2022/11/27 10:15:38;;;;;;;74.53;29.85;;;;;;;5.44;100.00;100559.88;8166024;29;20044;-75
2022/11/27 10:19:43;;;;;;;64.28;27.58;;;;;;;5.53;100.00;100542.38;8166182;29;20060;-75
2022/11/27 10:23:57;;;;;;;56.78;26.48;;;;;;;5.61;100.00;100549.19;8165258;29;20111;-75
2022/11/27 10:28:01;;;;;;;67.80;28.83;;;;;;;5.50;100.00;100537.47;8164783;29;20479;-75
2022/11/27 10:32:10;;;;;;;55.40;26.63;;;;;;;5.33;100.00;100531.28;8131333;29;20423;-75
2022/11/27 10:36:14;;;;;;;56.63;27.05;;;;;;;5.24;100.00;100526.53;8146044;29;20520;-75
2022/11/27 10:40:30;;;;;;;58.72;26.65;;;;;;;5.38;100.00;100528.69;8163998;29;20055;-74
2022/11/27 10:44:33;;;;;;;70.63;31.60;;;;;;;5.40;100.00;100521.22;8251612;28;20068;-74
2022/11/27 10:48:34;;;;;;;62.85;27.65;;;;;;;5.20;100.00;100520.84;8259108;28;20139;-76
2022/11/27 10:53:02;;;;;;;82.50;35.75;;;;;;;5.10;100.00;100520.66;8367773;28;20048;-74
2022/11/27 10:57:23;;;;;;;76.30;30.83;;;;;;;5.09;100.00;100516.34;8392301;28;20386;-75
2022/11/27 11:01:26;;;;;;;69.75;30.75;;;;;;;5.16;100.00;100514.34;8391121;28;20048;-76
2022/11/27 11:05:28;;;;;;;60.28;26.70;;;;;;;5.07;100.00;100510.41;8396336;28;20127;-75
2022/11/27 11:09:33;;;;;;;77.05;31.65;;;;;;;5.18;100.00;100501.53;8395130;28;20501;-75
2022/11/27 11:13:40;;;;;;;82.90;34.53;;;;;;;5.16;100.00;100500.13;8396167;28;20052;-75
2022/11/27 11:17:41;;;;;;;54.55;26.23;;;;;;;5.24;100.00;100495.19;8392587;28;20122;-75
2022/11/27 11:21:43;;;;;;;97.50;40.13;;;;;;;5.15;100.00;100496.63;8395641;28;20049;-75
2022/11/27 11:25:52;;;;;;;61.03;28.17;;;;;;;5.26;100.00;100494.97;8390504;28;20075;-75
2022/11/27 11:29:59;;;;;;;58.25;26.38;;;;;;;5.18;100.00;100498.84;8358088;28;20041;-76
2022/11/27 11:34:03;;;;;;;59.55;27.92;;;;;;;5.09;100.00;100492.22;8390729;28;20061;-75
2022/11/27 11:38:06;;;;;;;69.43;30.10;;;;;;;5.08;100.00;100495.97;8389858;28;20500;-76
2022/11/27 11:42:09;;;;;;;72.70;30.20;;;;;;;4.91;100.00;100489.75;8402969;28;20063;-75
2022/11/27 11:46:18;;;;;;;64.07;30.90;;;;;;;4.99;100.00;100486.69;8426769;28;20402;-75
2022/11/27 11:50:42;;;;;;;61.55;28.85;;;;;;;5.02;100.00;100486.22;8429025;28;20387;-74
2022/11/27 11:55:17;;;;;;;72.00;30.27;;;;;;;5.01;100.00;100473.88;8373581;28;20048;-76
2022/11/27 11:59:20;;;;;;;61.50;29.92;;;;;;;4.97;100.00;100478.09;8398028;28;20052;-76
2022/11/27 12:03:54;;;;;;;61.88;29.63;;;;;;;4.96;100.00;100481.81;8368486;28;20079;-75
2022/11/27 12:08:24;;;;;;;59.33;27.55;;;;;;;5.04;100.00;100478.75;8382405;28;20085;-75
2022/11/27 12:12:50;;;;;;;53.08;25.67;;;;;;;5.12;100.00;100481.06;8369157;28;20048;-75
2022/11/27 12:17:19;;;;;;;49.80;25.55;;;;;;;5.23;100.00;100472.16;8424401;28;20068;-75
2022/11/27 12:21:28;;;;;;;46.97;21.85;;;;;;;5.17;100.00;100462.41;8388113;28;20052;-75
2022/11/27 12:25:36;;;;;;;;;;;;;;;5.22;100.00;100475.06;8434287;28;20418;-75
2022/11/27 12:29:47;;;;;;;42.90;21.63;;;;;;;5.27;100.00;100473.31;8421775;28;19926;-76
2022/11/27 12:34:09;;;;;;;37.45;19.17;;;;;;;5.25;100.00;100464.69;8407025;28;20529;-76
2022/11/27 12:38:42;;;;;;;41.35;21.13;;;;;;;5.13;100.00;100461.25;8420803;28;20135;-75
2022/11/27 12:43:04;;;;;;;42.45;20.70;;;;;;;5.27;100.00;100462.59;8422149;28;20058;-75
2022/11/27 12:47:10;;;;;;;42.13;21.55;;;;;;;5.34;100.00;100463.22;8415010;28;20036;-76
2022/11/27 12:51:18;;;;;;;44.63;22.52;;;;;;;5.41;100.00;100463.09;8416272;28;20044;-75
2022/11/27 12:55:24;;;;;;;64.23;28.20;;;;;;;5.29;100.00;100462.31;8429730;28;20117;-75
2022/11/27 12:59:38;;;;;;;61.45;28.60;;;;;;;5.24;100.00;100463.06;8373904;28;20052;-75
2022/11/27 13:03:58;;;;;;;46.75;25.17;;;;;;;5.30;100.00;100464.78;8368230;28;20049;-75
2022/11/27 13:08:08;;;;;;;42.03;24.05;;;;;;;5.23;100.00;100461.44;8361209;28;20119;-75
2022/11/27 13:12:17;;;;;;;47.95;25.88;;;;;;;5.21;100.00;100463.53;8334096;28;20059;-75
2022/11/27 13:16:25;;;;;;;49.90;25.70;;;;;;;5.15;100.00;100464.50;8353969;28;20041;-75
2022/11/27 13:20:32;;;;;;;;;;;;;;;5.21;100.00;100460.88;8344112;28;20046;-75
2022/11/27 13:24:33;;;;;;;47.97;23.73;;;;;;;5.25;100.00;100453.97;8293955;28;19975;-75
2022/11/27 13:28:43;;;;;;;41.95;22.02;;;;;;;5.11;100.00;100452.66;8262535;28;20048;-75
2022/11/27 13:32:50;;;;;;;46.13;23.45;;;;;;;5.09;100.00;100460.09;8289078;28;20606;-76
2022/11/27 13:37:05;;;;;;;57.40;25.90;;;;;;;5.16;100.00;100444.72;8321584;28;20041;-75
2022/11/27 13:41:07;;;;;;;68.65;28.60;;;;;;;5.15;100.00;100437.72;8284606;28;20047;-76
2022/11/27 13:45:18;;;;;;;63.60;29.38;;;;;;;5.14;100.00;100436.09;8325980;28;20045;-75
2022/11/27 13:49:30;;;;;;;82.13;31.75;;;;;;;5.17;100.00;100434.81;8298420;28;20053;-75
2022/11/27 13:53:41;;;;;;;89.50;36.97;;;;;;;5.13;100.00;100439.81;8325672;28;20075;-75
2022/11/27 13:57:51;;;;;;;61.95;27.55;;;;;;;5.11;100.00;100431.22;8426841;28;20505;-76
2022/11/27 14:02:01;;;;;;;62.35;30.63;;;;;;;5.12;100.00;100422.16;8430578;28;20054;-76
2022/11/27 14:06:02;;;;;;;55.35;28.33;;;;;;;5.23;100.00;100415.91;8429793;28;20047;-75
2022/11/27 14:10:24;;;;;;;46.60;24.25;;;;;;;5.19;100.00;100412.06;8426493;28;20052;-75
2022/11/27 14:14:26;;;;;;;56.67;27.13;;;;;;;5.10;100.00;100416.22;8420589;28;20059;-75
2022/11/27 14:18:28;;;;;;;52.47;27.80;;;;;;;5.12;100.00;100414.13;8409416;28;20387;-75
2022/11/27 14:22:44;;;;;;;49.15;25.08;;;;;;;5.06;100.00;100407.03;8428056;28;20494;-75
2022/11/27 14:26:45;;;;;;;52.65;26.83;;;;;;;5.08;100.00;100394.22;8419619;28;20040;-75
2022/11/27 14:30:52;;;;;;;56.38;30.13;;;;;;;5.06;100.00;100401.69;8375263;28;20432;-75
2022/11/27 14:34:53;;;;;;;55.92;28.58;;;;;;;5.06;100.00;100401.69;8410066;28;20047;-75
2022/11/27 14:38:58;;;;;;;56.40;28.35;;;;;;;5.01;100.00;100393.56;8424661;28;20048;-75
2022/11/27 14:43:12;;;;;;;62.30;30.67;;;;;;;4.91;100.00;100383.50;8427126;28;20052;-75
2022/11/27 14:47:19;;;;;;;69.63;33.58;;;;;;;4.92;100.00;100386.97;8409415;28;20047;-75
2022/11/27 14:51:22;;;;;;;76.70;36.42;;;;;;;4.86;100.00;100379.91;8408601;28;20082;-75
2022/11/27 14:55:23;;;;;;;84.13;39.40;;;;;;;4.79;100.00;100379.25;8426298;28;20409;-74
2022/11/27 14:59:25;;;;;;;71.60;35.25;;;;;;;4.75;100.00;100373.56;8411952;28;20055;-75
2022/11/27 15:03:26;;;;;;;80.75;38.55;;;;;;;4.74;100.00;100376.47;8433335;28;20051;-75
2022/11/27 15:07:30;;;;;;;71.93;33.60;;;;;;;4.73;100.00;100369.50;8436391;28;20121;-75
2022/11/27 15:11:31;;;;;;;75.40;35.10;;;;;;;4.65;100.00;100368.81;8409466;28;20052;-76
2022/11/27 15:15:37;;;;;;;74.20;34.92;;;;;;;4.56;100.00;100370.25;8428277;28;20040;-75
2022/11/27 15:19:38;;;;;;;79.40;35.20;;;;;;;4.51;100.00;100362.13;8428804;28;20105;-75
2022/11/27 15:23:44;;;;;;;71.05;32.10;;;;;;;4.46;100.00;100359.34;8428655;28;20056;-75
2022/11/27 15:27:46;;;;;;;76.47;33.50;;;;;;;4.46;100.00;100362.03;8423883;28;20128;-75
2022/11/27 15:31:51;;;;;;;75.13;32.65;;;;;;;4.40;100.00;100357.63;8416888;28;20405;-75
2022/11/27 15:36:11;;;;;;;80.80;34.45;;;;;;;4.45;100.00;100352.38;8427645;28;20048;-76
2022/11/27 15:40:28;;;;;;;71.57;32.13;;;;;;;4.40;100.00;100354.13;8428233;28;20060;-75
2022/11/27 15:44:31;;;;;;;68.47;32.03;;;;;;;4.37;100.00;100360.78;8426358;28;20060;-76
2022/11/27 15:48:32;;;;;;;73.50;30.65;;;;;;;4.33;100.00;100348.94;8429382;28;20087;-75
2022/11/27 15:52:33;;;;;;;77.68;34.40;;;;;;;4.31;100.00;100356.38;8380946;28;20048;-75
2022/11/27 15:56:34;;;;;;;81.20;38.80;;;;;;;4.25;100.00;100368.03;8434949;28;20097;-75
2022/11/27 16:00:35;;;;;;;81.00;34.25;;;;;;;4.27;100.00;100360.59;8436309;28;20071;-75
2022/11/27 16:04:37;;;;;;;80.40;34.75;;;;;;;4.27;100.00;100368.63;8424422;28;20498;-75
2022/11/27 16:08:38;;;;;;;74.38;34.80;;;;;;;4.24;100.00;100371.75;8431656;28;20040;-75
2022/11/27 16:12:39;;;;;;;84.00;37.45;;;;;;;4.26;100.00;100364.31;8364070;28;20520;-76
2022/11/27 16:16:40;;;;;;;88.57;38.75;;;;;;;4.29;100.00;100358.47;8432282;28;20509;-75
2022/11/27 16:20:42;;;;;;;74.43;33.97;;;;;;;4.32;100.00;100358.00;8433932;28;20050;-75
2022/11/27 16:24:45;;;;;;;79.18;34.20;;;;;;;4.33;100.00;100358.84;8375899;28;20122;-75
2022/11/27 16:28:46;;;;;;;98.30;40.22;;;;;;;4.27;100.00;100360.59;8433748;28;20101;-75
2022/11/27 16:32:48;;;;;;;84.95;37.25;;;;;;;4.29;100.00;100346.97;8396809;28;20036;-74
2022/11/27 16:36:49;;;;;;;82.55;36.85;;;;;;;4.30;100.00;100328.00;8433838;28;20448;-75
2022/11/27 16:40:51;;;;;;;97.63;43.75;;;;;;;4.31;100.00;100334.19;8432879;28;20036;-75
2022/11/27 16:44:53;;;;;;;79.90;37.30;;;;;;;4.32;100.00;100335.81;8379869;28;20075;-76
2022/11/27 16:48:55;;;;;;;90.40;35.67;;;;;;;4.26;100.00;100326.88;8396124;28;20452;-76
2022/11/27 16:52:56;;;;;;;78.55;37.10;;;;;;;4.29;100.00;100326.38;8390745;28;20079;-76
2022/11/27 16:56:58;;;;;;;75.40;34.78;;;;;;;4.23;100.00;100321.97;8378512;28;20045;-75
2022/11/27 17:01:04;;;;;;;81.55;34.53;;;;;;;4.17;100.00;100317.59;8362380;28;20048;-75
2022/11/27 17:05:06;;;;;;;84.88;34.83;;;;;;;4.17;100.00;100320.28;8397511;28;20538;-76
2022/11/27 17:09:08;;;;;;;79.18;35.78;;;;;;;4.08;100.00;100308.31;8396569;28;20203;-75
2022/11/27 17:13:10;;;;;;;86.45;38.08;;;;;;;4.04;100.00;100301.81;8396237;28;20074;-75
2022/11/27 17:17:12;;;;;;;84.82;36.78;;;;;;;3.99;100.00;100299.03;8397476;28;20048;-75
2022/11/27 17:21:17;;;;;;;78.65;33.45;;;;;;;3.98;100.00;100294.75;8392237;28;20052;-75
2022/11/27 17:25:18;;;;;;;75.05;34.25;;;;;;;3.98;100.00;100294.75;8358253;28;20483;-75
2022/11/27 17:29:22;;;;;;;74.75;32.85;;;;;;;3.95;100.00;100292.56;8396795;28;20495;-75
2022/11/27 17:33:23;;;;;;;74.10;32.53;;;;;;;3.92;100.00;100282.31;8395531;28;20078;-76
2022/11/27 17:37:24;;;;;;;86.05;36.13;;;;;;;3.87;100.00;100282.22;8395573;28;20048;-76
2022/11/27 17:41:25;;;;;;;75.50;34.03;;;;;;;3.83;100.00;100290.72;8362023;28;20050;-75
2022/11/27 17:45:27;;;;;;;82.55;35.35;;;;;;;3.82;100.00;100273.06;8424797;28;20052;-75
2022/11/27 17:49:28;;;;;;;81.30;37.35;;;;;;;3.76;100.00;100279.34;8424984;28;20569;-75
2022/11/27 17:53:29;;;;;;;79.97;35.67;;;;;;;3.70;100.00;100269.59;8431664;28;20051;-75
2022/11/27 17:57:31;;;;;;;84.72;37.47;;;;;;;3.66;100.00;100268.44;8427009;28;20496;-75
2022/11/27 18:01:33;;;;;;;86.70;37.40;;;;;;;3.63;100.00;100274.28;8377050;28;20524;-75
2022/11/27 18:05:36;;;;;;;90.78;36.53;;;;;;;3.60;100.00;100264.03;8424375;28;20098;-75
2022/11/27 18:09:38;;;;;;;85.22;36.25;;;;;;;3.52;100.00;100277.75;8394044;28;20059;-75
2022/11/27 18:13:40;;;;;;;95.90;39.22;;;;;;;3.54;100.00;100274.88;8392300;28;20463;-76
2022/11/27 18:17:41;;;;;;;101.97;43.00;;;;;;;3.54;100.00;100270.34;8428153;28;20138;-76
2022/11/27 18:21:42;;;;;;;164.02;74.35;;;;;;;3.52;100.00;100272.41;8431759;28;20048;-75
2022/11/27 18:25:43;;;;;;;157.02;72.95;;;;;;;3.54;100.00;100265.00;8428491;28;20051;-75
2022/11/27 18:29:48;;;;;;;187.68;89.20;;;;;;;3.58;100.00;100268.81;8428229;28;20058;-75